createdAt,value
2019-06-15T00:00:23.617Z,101139.38
2019-06-15T00:02:53.506Z,101145.02
2019-06-15T00:05:23.305Z,101147.37
2019-06-15T00:07:53.864Z,101145.55
2019-06-15T00:10:23.215Z,101149.47
2019-06-15T00:12:52.653Z,101150.52
2019-06-15T00:15:22.525Z,101148.21
2019-06-15T00:17:52.384Z,101145.60
2019-06-15T00:20:21.738Z,101140.86
2019-06-15T00:22:51.222Z,101139.52
2019-06-15T00:25:20.690Z,101134.36
2019-06-15T00:27:50.137Z,101137.80
2019-06-15T00:30:19.605Z,101146.73
2019-06-15T00:32:49.180Z,101148.14
2019-06-15T00:35:18.569Z,101149.36
2019-06-15T00:37:48.203Z,101146.52
2019-06-15T00:40:17.573Z,101145.04
2019-06-15T00:42:46.947Z,101146.66
2019-06-15T00:45:16.575Z,101144.52
2019-06-15T00:47:46.738Z,101149.37
2019-06-15T00:50:16.353Z,101150.66
2019-06-15T00:52:49.459Z,101156.72
2019-06-15T00:55:18.814Z,101153.62
2019-06-15T00:57:48.199Z,101148.14
2019-06-15T01:00:17.995Z,101142.47
2019-06-15T01:02:47.815Z,101140.03
2019-06-15T01:05:18.385Z,101132.76
2019-06-15T01:08:06.245Z,101139.81
2019-06-15T01:10:35.624Z,101133.89
2019-06-15T01:13:05.181Z,101130.58
2019-06-15T01:15:34.652Z,101130.31
2019-06-15T01:18:04.017Z,101131.48
2019-06-15T01:20:33.490Z,101124.95
2019-06-15T01:23:02.921Z,101123.60
2019-06-15T01:25:32.282Z,101114.58
2019-06-15T01:28:01.641Z,101115.11
2019-06-15T01:30:31.204Z,101118.55
2019-06-15T01:33:00.716Z,101123.38
2019-06-15T01:35:30.161Z,101127.55
2019-06-15T01:37:59.700Z,101133.08
2019-06-15T01:40:29.142Z,101136.77
2019-06-15T01:42:58.628Z,101135.02
2019-06-15T01:45:28.099Z,101133.15
2019-06-15T01:48:15.072Z,101129.41
2019-06-15T01:50:44.766Z,101122.96
2019-06-15T01:53:14.186Z,101118.97
2019-06-15T01:55:43.562Z,101113.88
2019-06-15T01:58:12.999Z,101118.63
2019-06-15T02:00:42.373Z,101122.23
2019-06-15T02:03:12.269Z,101116.09
2019-06-15T02:05:42.179Z,101108.35
2019-06-15T02:08:11.658Z,101109.80
2019-06-15T02:10:41.150Z,101111.36
2019-06-15T02:13:10.798Z,101110.23
2019-06-15T02:15:40.278Z,101104.83
2019-06-15T02:18:12.102Z,101104.30
2019-06-15T02:20:41.499Z,101100.63
2019-06-15T02:23:13.198Z,101093.80
2019-06-15T02:25:42.735Z,101096.19
2019-06-15T02:28:12.308Z,101096.32
2019-06-15T02:30:43.285Z,101093.56
2019-06-15T02:33:12.644Z,101099.18
2019-06-15T02:35:45.262Z,101092.65
2019-06-15T02:38:14.697Z,101094.73
2019-06-15T02:40:44.090Z,101100.27
2019-06-15T02:43:13.496Z,101100.17
2019-06-15T02:45:42.901Z,101103.25
2019-06-15T02:48:12.613Z,101097.67
2019-06-15T02:50:42.252Z,101105.98
2019-06-15T02:53:13.307Z,101096.34
2019-06-15T02:55:50.717Z,101096.11
2019-06-15T02:58:14.170Z,101087.34
2019-06-15T03:00:53.499Z,101088.09
2019-06-15T03:03:23.505Z,101086.07
2019-06-15T03:05:54.740Z,101089.11
2019-06-15T03:08:25.645Z,101088.69
2019-06-15T03:10:58.444Z,101090.48
2019-06-15T03:13:28.359Z,101092.73
2019-06-15T03:15:58.099Z,101090.00
2019-06-15T03:18:30.172Z,101095.44
2019-06-15T03:20:59.668Z,101089.22
2019-06-15T03:23:31.018Z,101090.75
2019-06-15T03:26:05.372Z,101092.45
2019-06-15T03:28:31.569Z,101098.36
2019-06-15T03:31:03.638Z,101096.20
2019-06-15T03:33:32.990Z,101097.13
2019-06-15T03:36:02.428Z,101098.75
2019-06-15T03:38:31.932Z,101084.14
2019-06-15T03:41:01.435Z,101080.59
2019-06-15T03:43:32.608Z,101078.14
2019-06-15T03:46:02.035Z,101068.86
2019-06-15T03:48:31.514Z,101073.17
2019-06-15T03:51:01.009Z,101077.94
2019-06-15T03:53:30.445Z,101072.51
2019-06-15T03:56:03.412Z,101071.31
2019-06-15T03:58:32.751Z,101060.97
2019-06-15T04:01:12.736Z,101068.86
2019-06-15T04:03:42.393Z,101070.27
2019-06-15T04:06:14.937Z,101062.75
2019-06-15T04:08:44.436Z,101071.03
2019-06-15T04:11:21.524Z,101068.58
2019-06-15T04:16:39.425Z,101085.34
2019-06-15T04:19:09.504Z,101079.56
2019-06-15T04:21:41.933Z,101083.52
2019-06-15T04:24:11.409Z,101082.81
2019-06-15T04:26:40.840Z,101084.52
2019-06-15T04:29:14.561Z,101087.14
2019-06-15T04:31:43.941Z,101086.23
2019-06-15T04:34:13.647Z,101090.63
2019-06-15T04:36:43.184Z,101082.30
2019-06-15T04:39:12.602Z,101079.95
2019-06-15T04:41:42.240Z,101082.11
2019-06-15T04:44:11.775Z,101080.39
2019-06-15T04:46:44.139Z,101090.31
2019-06-15T04:49:13.541Z,101083.91
2019-06-15T04:51:42.945Z,101086.83
2019-06-15T04:54:12.398Z,101081.92
2019-06-15T04:56:50.538Z,101081.22
2019-06-15T04:59:13.113Z,101079.13
2019-06-15T05:01:42.505Z,101078.22
2019-06-15T05:04:12.139Z,101079.00
2019-06-15T05:06:41.971Z,101068.44
2019-06-15T05:09:12.059Z,101070.39
2019-06-15T05:11:41.456Z,101072.31
2019-06-15T05:14:10.961Z,101076.25
2019-06-15T05:16:40.384Z,101068.38
2019-06-15T05:19:10.065Z,101072.00
2019-06-15T05:21:39.479Z,101073.09
2019-06-15T05:24:08.961Z,101071.22
2019-06-15T05:26:38.478Z,101068.53
2019-06-15T05:29:07.911Z,101069.09
2019-06-15T05:31:37.263Z,101061.73
2019-06-15T05:34:06.697Z,101065.88
2019-06-15T05:36:36.071Z,101063.08
2019-06-15T05:39:06.635Z,101056.52
2019-06-15T05:41:36.110Z,101057.55
2019-06-15T05:44:05.815Z,101054.25
2019-06-15T05:46:35.178Z,101057.27
2019-06-15T05:49:04.672Z,101058.53
2019-06-15T05:51:34.012Z,101056.64
2019-06-15T05:54:03.394Z,101052.79
2019-06-15T05:56:33.587Z,101053.08
2019-06-15T05:59:03.335Z,101052.57
2019-06-15T06:01:32.735Z,101052.29
2019-06-15T06:04:02.307Z,101052.33
2019-06-15T06:06:31.838Z,101048.24
2019-06-15T06:09:02.244Z,101054.30
2019-06-15T06:11:32.532Z,101050.77
2019-06-15T06:14:01.896Z,101050.48
2019-06-15T06:16:31.303Z,101055.66
2019-06-15T06:19:00.905Z,101049.41
2019-06-15T06:21:30.277Z,101054.03
2019-06-15T06:23:59.820Z,101055.94
2019-06-15T06:26:29.246Z,101055.05
2019-06-15T06:28:58.775Z,101056.38
2019-06-15T06:31:28.128Z,101054.25
2019-06-15T06:33:57.552Z,101054.28
2019-06-15T06:36:27.049Z,101056.98
2019-06-15T06:38:57.046Z,101065.44
2019-06-15T06:41:26.460Z,101057.29
2019-06-15T06:43:56.089Z,101056.21
2019-06-15T06:46:25.518Z,101061.44
2019-06-15T06:48:55.242Z,101048.63
2019-06-15T06:51:24.819Z,101063.40
2019-06-15T06:53:54.379Z,101055.48
2019-06-15T06:56:23.850Z,101056.03
2019-06-15T06:58:53.270Z,101060.14
2019-06-15T07:01:22.819Z,101056.08
2019-06-15T07:03:52.383Z,101055.29
2019-06-15T07:06:21.894Z,101050.67
2019-06-15T07:08:51.660Z,101050.95
2019-06-15T07:11:21.297Z,101046.83
2019-06-15T07:13:50.716Z,101051.50
2019-06-15T07:16:20.149Z,101046.30
2019-06-15T07:18:49.744Z,101057.50
2019-06-15T07:21:19.191Z,101047.42
2019-06-15T07:23:48.540Z,101046.09
2019-06-15T07:26:18.081Z,101046.08
2019-06-15T07:28:47.445Z,101047.73
2019-06-15T07:31:17.030Z,101042.29
2019-06-15T07:33:46.489Z,101044.77
2019-06-15T07:36:15.859Z,101047.80
2019-06-15T07:38:45.240Z,101045.06
2019-06-15T07:41:14.676Z,101051.37
2019-06-15T07:43:44.102Z,101046.70
2019-06-15T07:46:13.605Z,101045.89
2019-06-15T07:48:43.032Z,101045.08
2019-06-15T07:51:12.442Z,101047.80
2019-06-15T07:53:41.891Z,101048.34
2019-06-15T07:56:11.356Z,101042.05
2019-06-15T07:58:41.298Z,101044.21
2019-06-15T08:01:10.748Z,101042.03
2019-06-15T08:03:43.229Z,101045.45
2019-06-15T08:06:11.684Z,101039.07
2019-06-15T08:08:43.119Z,101038.72
2019-06-15T08:11:12.607Z,101032.34
2019-06-15T08:13:42.397Z,101032.80
2019-06-15T08:16:11.897Z,101030.23
2019-06-15T08:18:41.954Z,101031.30
2019-06-15T08:21:11.366Z,101026.18
2019-06-15T08:23:40.863Z,101031.95
2019-06-15T08:26:10.353Z,101027.09
2019-06-15T08:28:40.830Z,101024.67
2019-06-15T08:31:10.259Z,101021.32
2019-06-15T08:33:39.707Z,101013.66
2019-06-15T08:36:09.118Z,101014.27
2019-06-15T08:38:38.751Z,101015.40
2019-06-15T08:41:08.426Z,101011.86
2019-06-15T08:43:37.808Z,101012.94
2019-06-15T08:46:07.279Z,101012.19
2019-06-15T08:48:36.689Z,101005.11
2019-06-15T08:51:06.043Z,101007.88
2019-06-15T08:53:35.422Z,100999.80
2019-06-15T08:56:04.921Z,101002.80
2019-06-15T08:58:34.393Z,100996.70
2019-06-15T09:01:03.775Z,100990.88
2019-06-15T09:03:33.290Z,100996.90
2019-06-15T09:06:02.828Z,100988.40
2019-06-15T09:08:32.474Z,100990.02
2019-06-15T09:11:02.028Z,100985.74
2019-06-15T09:13:31.385Z,100984.26
2019-06-15T09:16:00.923Z,100984.45
2019-06-15T09:18:30.365Z,100988.42
2019-06-15T09:20:59.834Z,100982.81
2019-06-15T09:23:29.400Z,100987.46
2019-06-15T09:25:58.896Z,100988.80
2019-06-15T09:28:28.376Z,100995.81
2019-06-15T09:30:57.856Z,100998.77
2019-06-15T09:33:27.656Z,100996.67
2019-06-15T09:35:57.111Z,100994.30
2019-06-15T09:38:26.505Z,100994.81
2019-06-15T09:40:55.987Z,101000.96
2019-06-15T09:43:25.372Z,100997.67
2019-06-15T09:45:54.869Z,100995.52
2019-06-15T09:48:24.432Z,100993.18
2019-06-15T09:50:54.189Z,100987.86
2019-06-15T09:53:23.556Z,100982.70
2019-06-15T09:55:53.089Z,100997.05
2019-06-15T09:58:22.510Z,100992.06
2019-06-15T10:00:51.929Z,100988.61
2019-06-15T10:03:21.363Z,100982.55
2019-06-15T10:05:51.058Z,100990.28
2019-06-15T10:08:20.694Z,100984.92
2019-06-15T10:10:50.630Z,100985.08
2019-06-15T10:13:20.112Z,100981.55
2019-06-15T10:15:49.578Z,100971.70
2019-06-15T10:18:18.987Z,100970.98
2019-06-15T10:20:48.350Z,100970.10
2019-06-15T10:23:17.706Z,100955.49
2019-06-15T10:25:50.184Z,100942.92
2019-06-15T10:28:18.337Z,100949.69
2019-06-15T10:30:47.741Z,100952.02
2019-06-15T10:33:17.149Z,100953.78
2019-06-15T10:35:46.545Z,100949.71
2019-06-15T10:38:15.914Z,100951.74
2019-06-15T10:40:46.452Z,100941.14
2019-06-15T10:43:15.905Z,100937.66
2019-06-15T10:45:45.299Z,100924.92
2019-06-15T10:48:15.114Z,100927.35
2019-06-15T10:50:44.498Z,100922.70
2019-06-15T10:53:13.869Z,100917.24
2019-06-15T10:55:44.483Z,100910.70
2019-06-15T10:58:13.876Z,100901.85
2019-06-15T11:00:43.358Z,100899.36
2019-06-15T11:03:12.760Z,100896.44
2019-06-15T11:05:42.300Z,100888.40
2019-06-15T11:08:11.924Z,100868.84
2019-06-15T11:10:54.610Z,100866.94
2019-06-15T11:13:24.146Z,100868.62
2019-06-15T11:15:53.948Z,100869.86
2019-06-15T11:18:23.944Z,100872.19
2019-06-15T11:20:53.670Z,100868.11
2019-06-15T11:23:23.084Z,100862.72
2019-06-15T11:25:52.594Z,100860.30
2019-06-15T11:28:25.125Z,100858.42
2019-06-15T11:30:54.633Z,100865.64
2019-06-15T11:33:24.199Z,100874.17
2019-06-15T11:35:53.756Z,100871.26
2019-06-15T11:38:23.133Z,100868.40
2019-06-15T11:40:53.224Z,100879.73
2019-06-15T11:43:22.636Z,100880.13
2019-06-15T11:45:52.242Z,100894.67
2019-06-15T11:48:21.623Z,100891.16
2019-06-15T11:50:51.173Z,100888.61
2019-06-15T11:53:20.590Z,100886.11
2019-06-15T11:55:50.162Z,100888.67
2019-06-15T11:58:19.548Z,100884.63
2019-06-15T12:00:49.007Z,100887.64
2019-06-15T12:03:18.410Z,100874.06
2019-06-15T12:05:50.061Z,100881.97
2019-06-15T12:08:19.469Z,100877.57
2019-06-15T12:10:49.304Z,100883.33
2019-06-15T12:13:18.685Z,100876.77
2019-06-15T12:15:48.091Z,100881.46
2019-06-15T12:18:17.520Z,100877.08
2019-06-15T12:20:47.024Z,100871.62
2019-06-15T12:23:16.407Z,100876.80
2019-06-15T12:25:45.849Z,100879.28
2019-06-15T12:28:15.291Z,100875.25
2019-06-15T12:30:47.746Z,100870.97
2019-06-15T12:33:16.528Z,100864.65
2019-06-15T12:35:45.969Z,100865.38
2019-06-15T12:38:15.324Z,100860.33
2019-06-15T12:40:44.759Z,100849.59
2019-06-15T12:43:14.141Z,100846.78
2019-06-15T12:45:43.638Z,100841.67
2019-06-15T12:48:13.125Z,100846.70
2019-06-15T12:50:42.543Z,100843.08
2019-06-15T12:53:11.979Z,100839.95
2019-06-15T12:55:41.512Z,100833.54
2019-06-15T12:58:10.891Z,100835.48
2019-06-15T13:00:44.122Z,100834.36
2019-06-15T13:03:13.517Z,100827.19
2019-06-15T13:05:42.902Z,100821.23
2019-06-15T13:08:12.336Z,100821.12
2019-06-15T13:10:42.328Z,100822.47
2019-06-15T13:13:12.465Z,100809.55
2019-06-15T13:15:42.097Z,100811.81
2019-06-15T13:18:11.764Z,100812.11
2019-06-15T13:20:41.213Z,100806.26
2019-06-15T13:23:10.636Z,100808.89
2019-06-15T13:25:40.205Z,100800.82
2019-06-15T13:28:09.584Z,100799.21
2019-06-15T13:30:39.159Z,100801.13
2019-06-15T13:33:08.865Z,100789.73
2019-06-15T13:35:38.239Z,100793.49
2019-06-15T13:38:07.675Z,100778.14
2019-06-15T13:40:37.224Z,100776.20
2019-06-15T13:43:06.552Z,100775.23
2019-06-15T13:45:35.964Z,100783.34
2019-06-15T13:48:05.541Z,100765.36
2019-06-15T13:50:34.960Z,100764.36
2019-06-15T13:53:04.372Z,100759.66
2019-06-15T13:55:33.724Z,100761.52
2019-06-15T13:58:03.110Z,100764.73
2019-06-15T14:00:32.487Z,100760.95
2019-06-15T14:03:01.939Z,100757.73
2019-06-15T14:05:31.338Z,100755.23
2019-06-15T14:08:00.696Z,100749.31
2019-06-15T14:10:30.314Z,100748.83
2019-06-15T14:12:59.748Z,100746.23
2019-06-15T14:15:29.611Z,100738.03
2019-06-15T14:17:59.288Z,100732.58
2019-06-15T14:20:28.876Z,100743.59
2019-06-15T14:22:58.354Z,100733.94
2019-06-15T14:25:28.030Z,100733.72
2019-06-15T14:27:57.676Z,100745.96
2019-06-15T14:30:27.193Z,100747.66
2019-06-15T14:32:56.851Z,100741.28
2019-06-15T14:35:26.232Z,100740.15
2019-06-15T14:37:55.761Z,100740.67
2019-06-15T14:40:25.295Z,100736.10
2019-06-15T14:42:54.849Z,100738.88
2019-06-15T14:45:24.254Z,100746.34
2019-06-15T14:47:53.880Z,100736.52
2019-06-15T14:50:23.415Z,100735.55
2019-06-15T14:52:52.963Z,100736.28
2019-06-15T14:55:22.389Z,100727.10
2019-06-15T14:57:51.871Z,100734.17
2019-06-15T15:00:21.263Z,100735.63
2019-06-15T15:02:50.908Z,100737.64
2019-06-15T15:05:20.362Z,100731.00
2019-06-15T15:07:50.874Z,100731.01
2019-06-15T15:10:20.445Z,100727.91
2019-06-15T15:12:50.039Z,100723.84
2019-06-15T15:15:19.394Z,100723.27
2019-06-15T15:17:49.942Z,100718.81
2019-06-15T15:20:19.406Z,100720.61
2019-06-15T15:22:49.859Z,100723.05
2019-06-15T15:25:19.815Z,100717.77
2019-06-15T15:27:49.201Z,100710.30
2019-06-15T15:30:29.780Z,100714.02
2019-06-15T15:32:59.379Z,100712.66
2019-06-15T15:35:28.807Z,100712.86
2019-06-15T15:37:58.279Z,100709.54
2019-06-15T15:40:27.713Z,100704.79
2019-06-15T15:42:57.331Z,100708.53
2019-06-15T15:45:27.165Z,100708.27
2019-06-15T15:47:56.661Z,100706.83
2019-06-15T15:50:26.444Z,100701.30
2019-06-15T15:52:56.718Z,100701.83
2019-06-15T15:55:26.654Z,100708.97
2019-06-15T15:57:56.444Z,100710.23
2019-06-15T16:00:34.481Z,100709.55
2019-06-15T16:03:06.787Z,100712.16
2019-06-15T16:05:37.087Z,100706.41
2019-06-15T16:08:06.882Z,100707.31
2019-06-15T16:10:37.281Z,100708.72
2019-06-15T16:13:07.512Z,100708.47
2019-06-15T16:15:37.566Z,100705.18
2019-06-15T16:18:07.075Z,100709.39
2019-06-15T16:20:37.224Z,100711.53
2019-06-15T16:23:07.778Z,100716.45
2019-06-15T16:25:37.473Z,100713.53
2019-06-15T16:28:07.345Z,100723.67
2019-06-15T16:31:00.396Z,100714.85
2019-06-15T16:33:08.245Z,100706.99
2019-06-15T16:35:37.670Z,100711.49
2019-06-15T16:38:07.449Z,100709.69
2019-06-15T16:40:38.702Z,100704.14
2019-06-15T16:43:08.359Z,100698.08
2019-06-15T16:45:38.385Z,100695.13
2019-06-15T16:48:07.739Z,100697.63
2019-06-15T16:50:37.272Z,100694.06
2019-06-15T16:53:06.921Z,100687.94
2019-06-15T16:55:36.954Z,100688.72
2019-06-15T16:58:07.549Z,100691.38
2019-06-15T17:00:37.287Z,100679.20
2019-06-15T17:03:20.817Z,100675.53
2019-06-15T17:05:38.283Z,100679.80
2019-06-15T17:08:07.724Z,100678.93
2019-06-15T17:10:41.205Z,100678.03
2019-06-15T17:13:11.487Z,100677.61
2019-06-15T17:15:41.478Z,100674.91
2019-06-15T17:18:11.050Z,100675.77
2019-06-15T17:20:53.393Z,100679.23
2019-06-15T17:23:22.870Z,100679.14
2019-06-15T17:25:52.237Z,100683.55
2019-06-15T17:28:26.485Z,100682.88
2019-06-15T17:30:56.662Z,100682.05
2019-06-15T17:33:36.528Z,100682.30
2019-06-15T17:36:02.939Z,100684.78
2019-06-15T17:38:31.247Z,100677.62
2019-06-15T17:41:00.723Z,100683.59
2019-06-15T17:43:30.375Z,100679.00
2019-06-15T17:45:59.878Z,100679.04
2019-06-15T17:48:29.625Z,100677.18
2019-06-15T17:50:59.144Z,100671.05
2019-06-15T17:53:28.507Z,100669.78
2019-06-15T17:55:58.108Z,100670.33
2019-06-15T17:58:28.087Z,100658.59
2019-06-15T18:00:57.752Z,100656.88
2019-06-15T18:03:27.207Z,100652.58
2019-06-15T18:05:58.292Z,100653.45
2019-06-15T18:08:28.387Z,100655.56
2019-06-15T18:10:57.878Z,100659.61
2019-06-15T18:13:27.370Z,100648.70
2019-06-15T18:15:56.879Z,100651.47
2019-06-15T18:18:27.811Z,100643.62
2019-06-15T18:20:57.652Z,100638.80
2019-06-15T18:23:27.030Z,100644.86
2019-06-15T18:25:56.481Z,100641.27
2019-06-15T18:28:26.543Z,100637.13
2019-06-15T18:30:56.061Z,100633.55
2019-06-15T18:33:27.239Z,100629.00
2019-06-15T18:35:56.586Z,100623.81
2019-06-15T18:38:26.369Z,100622.70
2019-06-15T18:40:56.356Z,100622.91
2019-06-15T18:43:26.443Z,100620.62
2019-06-15T18:45:56.742Z,100619.66
2019-06-15T18:48:26.684Z,100609.95
2019-06-15T18:50:56.356Z,100606.58
2019-06-15T18:53:26.873Z,100607.06
2019-06-15T18:55:56.595Z,100616.64
2019-06-15T18:58:26.771Z,100623.41
2019-06-15T19:00:56.298Z,100618.41
2019-06-15T19:03:26.365Z,100614.13
2019-06-15T19:05:57.169Z,100615.94
2019-06-15T19:08:27.330Z,100620.98
2019-06-15T19:10:56.800Z,100621.35
2019-06-15T19:13:26.987Z,100621.72
2019-06-15T19:15:57.453Z,100623.76
2019-06-15T19:18:29.099Z,100621.13
2019-06-15T19:20:58.529Z,100626.67
2019-06-15T19:23:28.082Z,100637.72
2019-06-15T19:25:59.272Z,100639.47
2019-06-15T19:28:32.330Z,100630.77
2019-06-15T19:31:01.711Z,100633.34
2019-06-15T19:33:31.240Z,100623.24
2019-06-15T19:36:02.037Z,100621.15
2019-06-15T19:38:36.235Z,100620.08
2019-06-15T19:41:06.956Z,100620.67
2019-06-15T19:43:36.765Z,100620.73
2019-06-15T19:46:06.919Z,100614.75
2019-06-15T19:48:36.998Z,100617.23
2019-06-15T19:51:09.400Z,100608.80
2019-06-15T19:53:37.805Z,100610.20
2019-06-15T19:56:07.366Z,100601.79
2019-06-15T19:58:36.792Z,100611.95
2019-06-15T20:01:06.875Z,100613.39
2019-06-15T20:03:36.408Z,100612.09
2019-06-15T20:06:06.642Z,100610.22
2019-06-15T20:08:36.393Z,100611.33
2019-06-15T20:11:07.433Z,100605.64
2019-06-15T20:13:37.364Z,100604.59
2019-06-15T20:16:07.786Z,100609.83
2019-06-15T20:18:37.769Z,100618.62
2019-06-15T20:21:07.515Z,100615.90
2019-06-15T20:23:37.530Z,100617.86
2019-06-15T20:26:07.254Z,100624.42
2019-06-15T20:28:36.690Z,100628.25
2019-06-15T20:31:06.670Z,100635.35
2019-06-15T20:33:36.952Z,100632.36
2019-06-15T20:36:06.891Z,100627.75
2019-06-15T20:38:36.609Z,100630.76
2019-06-15T20:41:07.274Z,100631.86
2019-06-15T20:43:36.972Z,100631.04
2019-06-15T20:46:07.258Z,100638.95
2019-06-15T20:48:36.758Z,100636.51
2019-06-15T20:51:10.022Z,100630.54
2019-06-15T20:53:37.431Z,100625.09
2019-06-15T20:56:06.915Z,100630.00
2019-06-15T20:58:37.180Z,100639.31
2019-06-15T21:01:07.221Z,100639.31
2019-06-15T21:03:36.939Z,100639.05
2019-06-15T21:06:07.803Z,100631.41
2019-06-15T21:08:37.196Z,100634.44
2019-06-15T21:11:07.227Z,100629.83
2019-06-15T21:13:37.947Z,100632.00
2019-06-15T21:16:07.471Z,100630.37
2019-06-15T21:18:37.341Z,100627.37
2019-06-15T21:21:07.076Z,100619.77
2019-06-15T21:23:46.349Z,100626.84
2019-06-15T21:26:16.399Z,100631.74
2019-06-15T21:28:45.999Z,100638.02
2019-06-15T21:31:16.703Z,100640.73
2019-06-15T21:33:46.867Z,100637.45
2019-06-15T21:36:16.311Z,100639.36
2019-06-15T21:38:46.807Z,100637.48
2019-06-15T21:41:16.733Z,100639.38
2019-06-15T21:43:47.190Z,100644.78
2019-06-15T21:46:16.939Z,100635.80
2019-06-15T21:48:46.976Z,100633.32
2019-06-15T21:51:16.644Z,100632.52
2019-06-15T21:53:47.057Z,100634.13
2019-06-15T21:56:16.480Z,100639.33
2019-06-15T21:58:45.907Z,100642.58
2019-06-15T22:01:32.072Z,100648.83
2019-06-15T22:04:01.555Z,100648.27
2019-06-15T22:06:31.032Z,100646.67
2019-06-15T22:11:28.876Z,100647.74
2019-06-15T22:13:58.344Z,100639.56
2019-06-15T22:16:30.557Z,100642.55
2019-06-15T22:19:00.058Z,100644.45
2019-06-15T22:21:30.926Z,100643.91
2019-06-15T22:24:00.358Z,100640.92
2019-06-15T22:26:29.849Z,100643.91
2019-06-15T22:28:59.384Z,100648.81
2019-06-15T22:31:29.533Z,100652.08
2019-06-15T22:33:59.063Z,100649.90
2019-06-15T22:36:28.815Z,100662.42
2019-06-15T22:38:59.862Z,100651.52
2019-06-15T22:41:29.279Z,100655.89
2019-06-15T22:43:58.792Z,100653.70
2019-06-15T22:46:29.491Z,100654.50
2019-06-15T22:48:59.024Z,100658.83
2019-06-15T22:51:28.446Z,100650.13
2019-06-15T22:53:58.093Z,100649.58
2019-06-15T22:56:29.411Z,100646.84
2019-06-15T22:58:58.886Z,100650.11
2019-06-15T23:01:28.381Z,100646.27
2019-06-15T23:03:57.848Z,100644.11
2019-06-15T23:06:36.928Z,100639.47
2019-06-15T23:08:58.409Z,100647.06
2019-06-15T23:11:30.574Z,100648.67
2019-06-15T23:14:00.126Z,100647.01
2019-06-15T23:16:29.713Z,100648.61
2019-06-15T23:18:59.850Z,100647.23
2019-06-15T23:21:29.237Z,100654.28
2019-06-15T23:23:58.831Z,100648.86
2019-06-15T23:26:28.276Z,100643.39
2019-06-15T23:28:57.745Z,100649.09
2019-06-15T23:31:27.255Z,100642.81
2019-06-15T23:33:56.747Z,100644.16
2019-06-15T23:36:31.595Z,100648.22
2019-06-15T23:39:07.610Z,100650.65
2019-06-15T23:41:36.409Z,100647.90
2019-06-15T23:44:05.836Z,100649.48
2019-06-15T23:46:43.511Z,100648.59
2019-06-15T23:49:12.988Z,100646.66
2019-06-15T23:51:42.375Z,100659.97
2019-06-15T23:54:11.905Z,100654.23
2019-06-15T23:56:41.419Z,100649.08
2019-06-15T23:59:10.840Z,100652.88
